SWR205 LSZH-EDDS
Flight info
| Callsign | SWR205 |
|---|---|
| Flight time | 0h 42m |
| Altitude | 13000 |
| Route | DEGES Z1 BODAN/N0344F120 Z1 ALAGO Z4 ARSUT T125 REUTL REUTL5A |
| Aircraft | A321/M-SDE3FGHIRWY/LB1 |
Departure
| Time | 2026-04-26 18:02 |
|---|---|
| Airport | Zürich Airport (LSZH) |
Arrival
| Time | 2026-04-26 18:45 |
|---|---|
| Airport | Stuttgart Airport (EDDS) |
| Time | Latitude | Longitude | Altitude | Speed | Heading |
|---|---|---|---|---|---|
| 2026-04-26 17:24 | 47.45334 | 8.55944 | 1397 ft | 0 kts | 6° |
| 2026-04-26 17:46 | 47.45329 | 8.55944 | 1405 ft | 2 kts | 7° |
| 2026-04-26 17:46 | 47.45302 | 8.55936 | 1405 ft | 3 kts | 19° |
| 2026-04-26 17:47 | 47.45277 | 8.55919 | 1402 ft | 3 kts | 37° |
| 2026-04-26 17:47 | 47.45265 | 8.55902 | 1404 ft | 2 kts | 55° |
| 2026-04-26 17:47 | 47.45256 | 8.55858 | 1406 ft | 2 kts | 96° |
| 2026-04-26 17:47 | 47.45259 | 8.55818 | 1401 ft | 2 kts | 96° |
| 2026-04-26 17:48 | 47.45261 | 8.55778 | 1397 ft | 3 kts | 96° |
| 2026-04-26 17:48 | 47.45264 | 8.55739 | 1397 ft | 3 kts | 96° |
| 2026-04-26 17:48 | 47.45267 | 8.55700 | 1397 ft | 3 kts | 96° |
| 2026-04-26 17:48 | 47.45270 | 8.55662 | 1397 ft | 3 kts | 96° |
| 2026-04-26 17:49 | 47.45272 | 8.55629 | 1400 ft | 1 kts | 96° |
| 2026-04-26 17:49 | 47.45271 | 8.55595 | 1402 ft | 3 kts | 63° |
| 2026-04-26 17:49 | 47.45254 | 8.55575 | 1406 ft | 3 kts | 356° |
| 2026-04-26 17:49 | 47.45230 | 8.55584 | 1405 ft | 3 kts | 337° |
| 2026-04-26 17:50 | 47.45209 | 8.55597 | 1405 ft | 0 kts | 336° |
| 2026-04-26 17:55 | 47.45243 | 8.55579 | 1400 ft | 9 kts | 345° |
| 2026-04-26 17:55 | 47.45336 | 8.55535 | 1403 ft | 19 kts | 336° |
| 2026-04-26 17:56 | 47.45458 | 8.55451 | 1404 ft | 19 kts | 334° |
| 2026-04-26 17:56 | 47.45683 | 8.55307 | 1402 ft | 16 kts | 343° |
| 2026-04-26 17:57 | 47.45875 | 8.55179 | 1399 ft | 15 kts | 321° |
| 2026-04-26 17:57 | 47.45975 | 8.55011 | 1398 ft | 27 kts | 310° |
| 2026-04-26 17:57 | 47.46124 | 8.54872 | 1402 ft | 22 kts | 334° |
| 2026-04-26 17:57 | 47.46257 | 8.54779 | 1398 ft | 20 kts | 334° |
| 2026-04-26 17:58 | 47.46630 | 8.54517 | 1400 ft | 19 kts | 334° |
| 2026-04-26 17:59 | 47.46848 | 8.54382 | 1401 ft | 16 kts | 340° |
| 2026-04-26 17:59 | 47.46933 | 8.54313 | 1403 ft | 12 kts | 327° |
| 2026-04-26 17:59 | 47.46991 | 8.54249 | 1400 ft | 9 kts | 317° |
| 2026-04-26 17:59 | 47.47026 | 8.54182 | 1400 ft | 7 kts | 283° |
| 2026-04-26 18:00 | 47.47020 | 8.54120 | 1398 ft | 5 kts | 262° |
| 2026-04-26 18:00 | 47.47013 | 8.54069 | 1408 ft | 9 kts | 250° |
| 2026-04-26 18:00 | 47.46956 | 8.54021 | 1405 ft | 8 kts | 174° |
| 2026-04-26 18:00 | 47.46937 | 8.54032 | 1403 ft | 0 kts | 154° |
| 2026-04-26 18:01 | 47.46708 | 8.54189 | 1399 ft | 73 kts | 155° |
| 2026-04-26 18:01 | 47.46069 | 8.54633 | 1407 ft | 129 kts | 155° |
| 2026-04-26 18:02 | 47.45110 | 8.55302 | 1412 ft | 172 kts | 158° |
| 2026-04-26 18:02 | 47.44360 | 8.55746 | 1705 ft | 173 kts | 157° |
| 2026-04-26 18:02 | 47.42890 | 8.56540 | 2616 ft | 166 kts | 145° |
| 2026-04-26 18:02 | 47.42142 | 8.57745 | 3194 ft | 156 kts | 108° |
| 2026-04-26 18:03 | 47.42094 | 8.59335 | 3503 ft | 168 kts | 77° |
| 2026-04-26 18:03 | 47.42472 | 8.61087 | 3806 ft | 181 kts | 70° |
| 2026-04-26 18:03 | 47.42888 | 8.62839 | 4267 ft | 183 kts | 70° |
| 2026-04-26 18:03 | 47.43307 | 8.64573 | 4745 ft | 184 kts | 69° |
| 2026-04-26 18:04 | 47.43771 | 8.66386 | 5015 ft | 196 kts | 68° |
| 2026-04-26 18:04 | 47.44298 | 8.68343 | 5156 ft | 214 kts | 68° |
| 2026-04-26 18:04 | 47.44862 | 8.70435 | 5393 ft | 223 kts | 68° |
| 2026-04-26 18:05 | 47.46072 | 8.74955 | 5856 ft | 259 kts | 68° |
| 2026-04-26 18:05 | 47.46534 | 8.77491 | 6443 ft | 267 kts | 81° |
| 2026-04-26 18:05 | 47.46657 | 8.80106 | 7052 ft | 274 kts | 86° |
| 2026-04-26 18:05 | 47.46627 | 8.82860 | 7678 ft | 279 kts | 97° |
| 2026-04-26 18:06 | 47.46256 | 8.85523 | 8258 ft | 286 kts | 102° |
| 2026-04-26 18:06 | 47.45812 | 8.88484 | 8905 ft | 291 kts | 102° |
| 2026-04-26 18:06 | 47.45403 | 8.91260 | 9507 ft | 296 kts | 103° |
| 2026-04-26 18:06 | 47.44992 | 8.94114 | 10110 ft | 300 kts | 103° |
| 2026-04-26 18:07 | 47.44535 | 8.97307 | 10485 ft | 316 kts | 102° |
| 2026-04-26 18:07 | 47.44074 | 9.00514 | 10597 ft | 337 kts | 102° |
| 2026-04-26 18:07 | 47.43597 | 9.03838 | 10726 ft | 356 kts | 102° |
| 2026-04-26 18:07 | 47.43269 | 9.06125 | 10857 ft | 365 kts | 102° |
| 2026-04-26 18:08 | 47.42568 | 9.11010 | 11511 ft | 373 kts | 102° |
| 2026-04-26 18:08 | 47.42083 | 9.14763 | 12066 ft | 376 kts | 97° |
| 2026-04-26 18:08 | 47.42040 | 9.18662 | 12633 ft | 380 kts | 84° |
| 2026-04-26 18:08 | 47.42529 | 9.22505 | 13067 ft | 383 kts | 72° |
| 2026-04-26 18:09 | 47.43436 | 9.25850 | 13189 ft | 387 kts | 61° |
| 2026-04-26 18:09 | 47.44810 | 9.29352 | 13210 ft | 399 kts | 58° |
| 2026-04-26 18:09 | 47.46135 | 9.32713 | 13203 ft | 402 kts | 59° |
| 2026-04-26 18:09 | 47.47628 | 9.35992 | 13206 ft | 402 kts | 50° |
| 2026-04-26 18:10 | 47.49418 | 9.38779 | 13193 ft | 400 kts | 39° |
| 2026-04-26 18:10 | 47.51600 | 9.41138 | 13188 ft | 398 kts | 28° |
| 2026-04-26 18:10 | 47.53876 | 9.42750 | 13192 ft | 396 kts | 18° |
| 2026-04-26 18:10 | 47.56453 | 9.44019 | 13192 ft | 396 kts | 16° |
| 2026-04-26 18:11 | 47.58965 | 9.44956 | 13194 ft | 394 kts | 7° |
| 2026-04-26 18:11 | 47.61617 | 9.45288 | 13193 ft | 392 kts | 359° |
| 2026-04-26 18:11 | 47.64296 | 9.45407 | 13201 ft | 392 kts | 0° |
| 2026-04-26 18:11 | 47.67053 | 9.45554 | 13201 ft | 392 kts | 0° |
| 2026-04-26 18:12 | 47.69756 | 9.45711 | 13198 ft | 392 kts | 0° |
| 2026-04-26 18:12 | 47.72474 | 9.45868 | 13199 ft | 392 kts | 0° |
| 2026-04-26 18:12 | 47.75235 | 9.46023 | 13201 ft | 392 kts | 0° |
| 2026-04-26 18:12 | 47.77903 | 9.46167 | 13202 ft | 392 kts | 360° |
| 2026-04-26 18:13 | 47.80445 | 9.45978 | 13207 ft | 390 kts | 350° |
| 2026-04-26 18:13 | 47.82959 | 9.45188 | 13216 ft | 388 kts | 344° |
| 2026-04-26 18:13 | 47.85463 | 9.44253 | 13222 ft | 388 kts | 344° |
| 2026-04-26 18:13 | 47.87190 | 9.43622 | 13218 ft | 388 kts | 345° |
| 2026-04-26 18:14 | 47.90597 | 9.42390 | 13217 ft | 388 kts | 345° |
| 2026-04-26 18:14 | 47.93169 | 9.41462 | 13218 ft | 388 kts | 345° |
| 2026-04-26 18:14 | 47.95750 | 9.40528 | 13211 ft | 387 kts | 345° |
| 2026-04-26 18:14 | 47.98146 | 9.39659 | 12971 ft | 372 kts | 345° |
| 2026-04-26 18:15 | 48.00608 | 9.38764 | 12709 ft | 364 kts | 345° |
| 2026-04-26 18:15 | 48.02897 | 9.37926 | 12481 ft | 360 kts | 344° |
| 2026-04-26 18:15 | 48.05306 | 9.37043 | 12238 ft | 358 kts | 345° |
| 2026-04-26 18:15 | 48.07620 | 9.36194 | 11987 ft | 356 kts | 345° |
| 2026-04-26 18:16 | 48.09902 | 9.35354 | 11740 ft | 354 kts | 345° |
| 2026-04-26 18:16 | 48.14518 | 9.33657 | 11275 ft | 351 kts | 347° |
| 2026-04-26 18:16 | 48.16872 | 9.33137 | 11032 ft | 351 kts | 351° |
| 2026-04-26 18:17 | 48.19083 | 9.32210 | 10849 ft | 346 kts | 332° |
| 2026-04-26 18:17 | 48.21079 | 9.30325 | 10750 ft | 347 kts | 324° |
| 2026-04-26 18:17 | 48.22951 | 9.28361 | 10662 ft | 338 kts | 324° |
| 2026-04-26 18:17 | 48.24752 | 9.26462 | 10567 ft | 321 kts | 324° |
| 2026-04-26 18:18 | 48.26491 | 9.24626 | 10474 ft | 306 kts | 324° |
| 2026-04-26 18:18 | 48.28124 | 9.22906 | 10367 ft | 293 kts | 324° |
| 2026-04-26 18:18 | 48.29716 | 9.21230 | 10182 ft | 284 kts | 324° |
| 2026-04-26 18:18 | 48.31256 | 9.19609 | 9802 ft | 281 kts | 324° |
| 2026-04-26 18:19 | 48.32844 | 9.17929 | 9372 ft | 279 kts | 324° |
| 2026-04-26 18:19 | 48.34443 | 9.16231 | 9204 ft | 278 kts | 324° |
| 2026-04-26 18:19 | 48.36007 | 9.14570 | 9216 ft | 279 kts | 324° |
| 2026-04-26 18:19 | 48.37588 | 9.12893 | 8937 ft | 277 kts | 324° |
| 2026-04-26 18:20 | 48.39160 | 9.11226 | 8510 ft | 275 kts | 324° |
| 2026-04-26 18:20 | 48.40700 | 9.09588 | 8233 ft | 274 kts | 324° |
| 2026-04-26 18:20 | 48.42184 | 9.08008 | 8222 ft | 262 kts | 324° |
| 2026-04-26 18:20 | 48.42706 | 9.07453 | 8220 ft | 255 kts | 324° |
| 2026-04-26 18:21 | 48.44944 | 9.05040 | 8222 ft | 242 kts | 324° |
| 2026-04-26 18:21 | 48.46274 | 9.03596 | 8175 ft | 242 kts | 323° |
| 2026-04-26 18:21 | 48.47191 | 9.02649 | 7971 ft | 240 kts | 330° |
| 2026-04-26 18:21 | 48.49176 | 9.01486 | 7490 ft | 240 kts | 343° |
| 2026-04-26 18:22 | 48.50684 | 9.00823 | 7157 ft | 239 kts | 343° |
| 2026-04-26 18:22 | 48.52295 | 9.00129 | 7019 ft | 229 kts | 343° |
| 2026-04-26 18:22 | 48.53278 | 8.99705 | 6940 ft | 222 kts | 344° |
| 2026-04-26 18:22 | 48.55155 | 8.98891 | 6745 ft | 211 kts | 344° |
| 2026-04-26 18:23 | 48.56447 | 8.98324 | 6565 ft | 206 kts | 343° |
| 2026-04-26 18:23 | 48.57781 | 8.97735 | 6375 ft | 199 kts | 344° |
| 2026-04-26 18:23 | 48.59065 | 8.97160 | 6237 ft | 190 kts | 344° |
| 2026-04-26 18:23 | 48.60258 | 8.96617 | 6034 ft | 184 kts | 345° |
| 2026-04-26 18:24 | 48.61434 | 8.96069 | 5766 ft | 181 kts | 346° |
| 2026-04-26 18:24 | 48.62638 | 8.96064 | 5473 ft | 177 kts | 22° |
| 2026-04-26 18:24 | 48.63287 | 8.96700 | 5307 ft | 174 kts | 44° |
| 2026-04-26 18:24 | 48.64072 | 8.98068 | 5001 ft | 175 kts | 52° |
| 2026-04-26 18:25 | 48.64646 | 8.99582 | 4846 ft | 167 kts | 72° |
| 2026-04-26 18:25 | 48.64958 | 9.01185 | 4647 ft | 162 kts | 72° |
| 2026-04-26 18:25 | 48.65270 | 9.02767 | 4394 ft | 161 kts | 72° |
| 2026-04-26 18:25 | 48.65580 | 9.04359 | 4128 ft | 161 kts | 72° |
| 2026-04-26 18:26 | 48.65883 | 9.05933 | 4060 ft | 160 kts | 73° |
| 2026-04-26 18:26 | 48.66182 | 9.07518 | 3815 ft | 163 kts | 75° |
| 2026-04-26 18:26 | 48.66457 | 9.09214 | 3429 ft | 176 kts | 76° |
| 2026-04-26 18:26 | 48.66751 | 9.10982 | 3171 ft | 186 kts | 74° |
| 2026-04-26 18:27 | 48.67080 | 9.12897 | 2911 ft | 188 kts | 72° |
| 2026-04-26 18:27 | 48.67517 | 9.14692 | 2484 ft | 177 kts | 67° |
| 2026-04-26 18:27 | 48.67886 | 9.16443 | 1967 ft | 171 kts | 73° |
| 2026-04-26 18:27 | 48.68205 | 9.18167 | 2226 ft | 174 kts | 73° |
| 2026-04-26 18:28 | 48.68514 | 9.19957 | 2940 ft | 179 kts | 73° |
| 2026-04-26 18:28 | 48.68856 | 9.21844 | 3649 ft | 195 kts | 73° |
| 2026-04-26 18:28 | 48.69256 | 9.23956 | 4133 ft | 220 kts | 73° |
| 2026-04-26 18:28 | 48.69675 | 9.26285 | 4541 ft | 247 kts | 74° |
| 2026-04-26 18:29 | 48.70177 | 9.29019 | 4501 ft | 275 kts | 74° |
| 2026-04-26 18:29 | 48.70680 | 9.31734 | 4503 ft | 263 kts | 73° |
| 2026-04-26 18:29 | 48.71164 | 9.34394 | 4602 ft | 261 kts | 74° |
| 2026-04-26 18:29 | 48.71643 | 9.37028 | 4852 ft | 265 kts | 74° |
| 2026-04-26 18:30 | 48.72133 | 9.39724 | 4980 ft | 267 kts | 74° |
| 2026-04-26 18:30 | 48.72597 | 9.42283 | 5004 ft | 267 kts | 74° |
| 2026-04-26 18:30 | 48.73078 | 9.44951 | 5013 ft | 267 kts | 74° |
| 2026-04-26 18:30 | 48.73557 | 9.47580 | 5011 ft | 267 kts | 74° |
| 2026-04-26 18:31 | 48.73979 | 9.50175 | 5012 ft | 267 kts | 83° |
| 2026-04-26 18:31 | 48.73779 | 9.52828 | 5008 ft | 268 kts | 110° |
| 2026-04-26 18:31 | 48.72772 | 9.55084 | 5010 ft | 263 kts | 139° |
| 2026-04-26 18:31 | 48.71237 | 9.56301 | 5007 ft | 252 kts | 168° |
| 2026-04-26 18:32 | 48.69578 | 9.56213 | 5007 ft | 240 kts | 200° |
| 2026-04-26 18:32 | 48.68258 | 9.54939 | 5010 ft | 239 kts | 230° |
| 2026-04-26 18:32 | 48.67485 | 9.52827 | 5012 ft | 240 kts | 250° |
| 2026-04-26 18:32 | 48.66974 | 9.50474 | 5008 ft | 242 kts | 253° |
| 2026-04-26 18:33 | 48.66495 | 9.48047 | 5008 ft | 243 kts | 254° |
| 2026-04-26 18:33 | 48.66019 | 9.45589 | 5006 ft | 241 kts | 254° |
| 2026-04-26 18:33 | 48.65556 | 9.43185 | 5007 ft | 242 kts | 254° |
| 2026-04-26 18:33 | 48.65083 | 9.40723 | 5009 ft | 241 kts | 254° |
| 2026-04-26 18:34 | 48.64621 | 9.38303 | 5006 ft | 241 kts | 254° |
| 2026-04-26 18:34 | 48.64158 | 9.35884 | 5013 ft | 242 kts | 254° |
| 2026-04-26 18:34 | 48.63697 | 9.33475 | 5013 ft | 241 kts | 254° |
| 2026-04-26 18:34 | 48.63230 | 9.31049 | 5008 ft | 242 kts | 254° |
| 2026-04-26 18:35 | 48.62761 | 9.28600 | 5008 ft | 242 kts | 254° |
| 2026-04-26 18:35 | 48.62288 | 9.26142 | 5009 ft | 242 kts | 254° |
| 2026-04-26 18:35 | 48.61819 | 9.23705 | 5010 ft | 242 kts | 254° |
| 2026-04-26 18:35 | 48.61356 | 9.21295 | 5009 ft | 242 kts | 254° |
| 2026-04-26 18:36 | 48.60889 | 9.18858 | 5013 ft | 240 kts | 254° |
| 2026-04-26 18:36 | 48.60427 | 9.16438 | 5014 ft | 241 kts | 254° |
| 2026-04-26 18:36 | 48.59976 | 9.14081 | 5008 ft | 227 kts | 254° |
| 2026-04-26 18:36 | 48.59543 | 9.11836 | 4929 ft | 220 kts | 254° |
| 2026-04-26 18:37 | 48.59101 | 9.09584 | 4530 ft | 222 kts | 254° |
| 2026-04-26 18:37 | 48.58658 | 9.07347 | 4169 ft | 221 kts | 254° |
| 2026-04-26 18:37 | 48.58215 | 9.05137 | 4011 ft | 220 kts | 254° |
| 2026-04-26 18:37 | 48.57770 | 9.02916 | 4008 ft | 221 kts | 254° |
| 2026-04-26 18:38 | 48.57327 | 9.00702 | 4011 ft | 220 kts | 253° |
| 2026-04-26 18:38 | 48.56914 | 8.98467 | 4011 ft | 220 kts | 262° |
| 2026-04-26 18:38 | 48.57073 | 8.96225 | 4012 ft | 217 kts | 289° |
| 2026-04-26 18:38 | 48.57584 | 8.94100 | 4011 ft | 216 kts | 293° |
| 2026-04-26 18:39 | 48.58381 | 8.92172 | 4007 ft | 214 kts | 322° |
| 2026-04-26 18:39 | 48.59688 | 8.91295 | 4010 ft | 201 kts | 358° |
| 2026-04-26 18:39 | 48.60942 | 8.91733 | 3997 ft | 182 kts | 33° |
| 2026-04-26 18:39 | 48.61910 | 8.92872 | 4011 ft | 176 kts | 42° |
| 2026-04-26 18:40 | 48.62814 | 8.94120 | 4013 ft | 174 kts | 43° |
| 2026-04-26 18:40 | 48.63664 | 8.95364 | 4007 ft | 163 kts | 51° |
| 2026-04-26 18:40 | 48.64138 | 8.96840 | 4011 ft | 154 kts | 73° |
| 2026-04-26 18:40 | 48.64432 | 8.98375 | 4010 ft | 152 kts | 72° |
| 2026-04-26 18:41 | 48.64728 | 8.99915 | 3960 ft | 151 kts | 73° |
| 2026-04-26 18:41 | 48.65023 | 9.01446 | 3823 ft | 151 kts | 73° |
| 2026-04-26 18:41 | 48.65316 | 9.02972 | 3639 ft | 150 kts | 73° |
| 2026-04-26 18:41 | 48.65604 | 9.04476 | 3451 ft | 150 kts | 72° |
| 2026-04-26 18:42 | 48.65896 | 9.05994 | 3240 ft | 149 kts | 72° |
| 2026-04-26 18:42 | 48.66184 | 9.07501 | 3063 ft | 148 kts | 72° |
| 2026-04-26 18:42 | 48.66486 | 9.09081 | 2931 ft | 161 kts | 73° |
| 2026-04-26 18:42 | 48.66735 | 9.10644 | 2669 ft | 150 kts | 74° |
| 2026-04-26 18:43 | 48.66983 | 9.12173 | 2405 ft | 144 kts | 71° |
| 2026-04-26 18:43 | 48.67304 | 9.13609 | 2215 ft | 146 kts | 68° |
| 2026-04-26 18:43 | 48.67616 | 9.15098 | 1961 ft | 148 kts | 68° |
| 2026-04-26 18:43 | 48.67909 | 9.16588 | 1766 ft | 149 kts | 71° |
| 2026-04-26 18:44 | 48.68171 | 9.18066 | 1572 ft | 140 kts | 74° |
| 2026-04-26 18:44 | 48.68443 | 9.19447 | 1385 ft | 133 kts | 73° |
| 2026-04-26 18:44 | 48.68712 | 9.20731 | 1273 ft | 119 kts | 70° |
| 2026-04-26 18:44 | 48.68901 | 9.21724 | 1249 ft | 77 kts | 74° |
| 2026-04-26 18:45 | 48.69012 | 9.22317 | 1232 ft | 45 kts | 75° |
| 2026-04-26 18:45 | 48.69084 | 9.22538 | 1226 ft | 16 kts | 7° |
| 2026-04-26 18:45 | 48.69148 | 9.22530 | 1227 ft | 0 kts | 348° |
| 2026-04-26 18:45 | 48.69162 | 9.22525 | 1228 ft | 4 kts | 346° |
| 2026-04-26 18:46 | 48.69177 | 9.22518 | 1230 ft | 0 kts | 345° |